Time;durP1;ratioP1;P1;durP2;ratioP2;P2;SDS_P1;SDS_P2;PMS_P1;PMS_P2;Temp;Humidity;BMP_temperature;BMP_pressure;BME280_temperature;BME280_humidity;BME280_pressure;Samples;Min_cycle;Max_cycle;Signal;HPM_P1;HPM_P2
2023/08/18 00:00:07;;;;;;;;;22.00;18.50;;;;;24.64;66.68;101006.44;6247067;22;45291;-66
2023/08/18 00:02:33;;;;;;;;;19.00;18.00;;;;;24.72;66.72;101027.59;6247337;22;45246;-66
2023/08/18 00:04:58;;;;;;;;;23.75;23.25;;;;;24.64;66.49;101019.19;6246841;22;45436;-66
2023/08/18 00:07:24;;;;;;;;;21.50;20.75;;;;;24.47;67.12;100999.66;6247033;22;45339;-66
2023/08/18 00:09:49;;;;;;;;;23.00;22.25;;;;;24.48;67.45;101003.28;6247180;22;45230;-66
2023/08/18 00:12:14;;;;;;;;;23.50;23.25;;;;;24.49;67.38;100999.53;6247465;22;45301;-66
2023/08/18 00:14:40;;;;;;;;;22.25;21.50;;;;;24.51;67.37;101014.78;6246560;22;45366;-66
2023/08/18 00:17:05;;;;;;;;;26.25;24.50;;;;;24.45;67.43;101004.41;6244997;22;47040;-66
2023/08/18 00:19:30;;;;;;;;;25.25;24.25;;;;;24.34;68.04;100997.16;6247245;22;45350;-66
2023/08/18 00:21:56;;;;;;;;;23.50;20.50;;;;;24.30;68.44;100992.94;6247006;22;45316;-66
2023/08/18 00:24:21;;;;;;;;;21.25;20.25;;;;;24.44;68.03;101004.53;6246973;22;45427;-66
2023/08/18 00:26:47;;;;;;;;;26.00;23.25;;;;;24.45;68.01;101003.53;6247105;22;45342;-66
2023/08/18 00:29:12;;;;;;;;;26.50;22.50;;;;;24.44;68.07;101005.41;6246830;22;45433;-66
2023/08/18 00:31:38;;;;;;;;;18.50;16.50;;;;;24.32;68.47;100990.09;6247194;22;45264;-66
2023/08/18 00:34:04;;;;;;;;;25.75;23.00;;;;;24.37;68.33;100999.63;6247274;22;45233;-66
2023/08/18 00:36:30;;;;;;;;;14.00;11.75;;;;;24.39;69.27;101005.81;6247002;22;45269;-66
2023/08/18 00:38:58;;;;;;;;;20.00;20.00;;;;;24.34;68.69;100990.81;6247061;22;45238;-66
2023/08/18 00:41:23;;;;;;;;;27.00;25.00;;;;;24.20;68.97;100973.78;6247243;22;45427;-66
2023/08/18 00:43:49;;;;;;;;;25.50;23.25;;;;;24.20;69.12;100970.22;6246906;22;45310;-66
2023/08/18 00:46:15;;;;;;;;;24.50;20.50;;;;;24.15;69.10;100977.91;6246053;22;45356;-66
2023/08/18 00:48:42;;;;;;;;;24.25;24.00;;;;;24.18;69.29;100983.13;6246865;22;45306;-66
2023/08/18 00:51:08;;;;;;;;;24.50;22.50;;;;;24.25;70.08;100997.94;6247237;22;45379;-66
2023/08/18 00:53:35;;;;;;;;;23.50;23.00;;;;;24.15;69.57;100984.22;6219061;22;45426;-66
2023/08/18 00:56:01;;;;;;;;;25.50;21.75;;;;;24.10;69.71;100975.59;6246710;22;45239;-66
2023/08/18 00:58:27;;;;;;;;;25.00;24.25;;;;;24.12;69.70;100972.72;6246583;22;45492;-66
2023/08/18 01:00:53;;;;;;;;;24.25;24.25;;;;;24.22;69.84;101000.94;6247289;22;45182;-66
2023/08/18 01:03:18;;;;;;;;;20.50;19.50;;;;;24.20;70.27;100998.34;6247114;22;45310;-66
2023/08/18 01:05:44;;;;;;;;;20.50;20.50;;;;;24.08;70.48;100972.13;6219248;22;47132;-66
2023/08/18 01:08:09;;;;;;;;;22.25;21.50;;;;;24.05;70.52;100966.94;6246617;22;45450;-66
2023/08/18 01:10:44;;;;;;;;;25.25;22.75;;;;;24.08;70.28;100980.31;6247031;22;45391;-66
2023/08/18 01:13:15;;;;;;;;;22.75;22.00;;;;;24.13;70.43;100983.50;6246865;22;45447;-66
2023/08/18 01:15:44;;;;;;;;;22.25;21.25;;;;;24.18;70.88;100991.28;6218912;22;47501;-66
2023/08/18 01:18:11;;;;;;;;;23.00;19.75;;;;;23.97;70.64;100958.53;6246875;22;45339;-66
2023/08/18 01:20:37;;;;;;;;;23.75;23.75;;;;;24.08;71.09;100972.13;6247056;22;45332;-66
2023/08/18 01:23:04;;;;;;;;;20.75;19.25;;;;;24.17;70.69;100985.00;6247061;22;45324;-66
2023/08/18 01:25:30;;;;;;;;;20.50;20.00;;;;;24.13;70.65;100974.47;6219197;22;47641;-66
2023/08/18 01:27:59;;;;;;;;;31.00;25.75;;;;;23.96;70.85;100959.56;6246533;22;45321;-66
2023/08/18 01:30:31;;;;;;;;;23.00;22.00;;;;;23.97;71.10;100951.25;6246587;22;45439;-66
2023/08/18 01:33:16;;;;;;;;;21.25;21.25;;;;;23.89;71.30;100944.72;6246981;22;45220;-66
2023/08/18 01:35:44;;;;;;;;;25.75;23.75;;;;;23.93;71.47;100949.78;6218009;22;71163;-66
2023/08/18 01:38:12;;;;;;;;;23.00;22.00;;;;;23.97;71.69;100970.34;6219085;22;45354;-67
2023/08/18 01:40:39;;;;;;;;;23.25;21.75;;;;;23.90;71.71;100951.91;6219583;22;45321;-66
2023/08/18 01:43:04;;;;;;;;;21.00;17.50;;;;;23.86;71.74;100956.75;6246707;22;45352;-66
2023/08/18 01:45:32;;;;;;;;;22.00;20.75;;;;;23.93;71.91;100973.44;6222996;22;46996;-66
2023/08/18 01:47:57;;;;;;;;;25.25;22.25;;;;;23.93;72.48;100976.19;6246471;22;45474;-66
2023/08/18 01:50:23;;;;;;;;;21.75;19.25;;;;;23.83;71.97;100957.88;6247005;22;45232;-66
2023/08/18 01:52:48;;;;;;;;;24.75;24.75;;;;;23.99;72.55;100964.72;6246983;22;45168;-66
2023/08/18 01:55:13;;;;;;;;;22.50;21.75;;;;;23.85;72.19;100938.66;6246567;22;45378;-66
2023/08/18 01:57:39;;;;;;;;;19.25;18.50;;;;;23.82;72.73;100933.47;6247004;22;45397;-66
2023/08/18 02:00:05;;;;;;;;;24.50;22.50;;;;;23.82;72.14;100933.47;6246458;22;45296;-66
2023/08/18 02:02:30;;;;;;;;;24.50;21.25;;;;;23.99;72.41;100962.00;6246985;22;45289;-66
2023/08/18 02:04:56;;;;;;;;;22.75;21.00;;;;;23.99;72.53;100956.53;6245707;22;45354;-67
2023/08/18 02:07:22;;;;;;;;;23.75;23.00;;;;;23.97;72.42;100953.97;6246420;22;45479;-66
2023/08/18 02:09:47;;;;;;;;;25.75;25.75;;;;;23.99;72.35;100957.44;6246637;22;45527;-66
2023/08/18 02:12:12;;;;;;;;;23.00;22.25;;;;;23.78;72.74;100923.78;6246857;22;45416;-66
2023/08/18 02:14:37;;;;;;;;;27.50;24.50;;;;;23.91;72.62;100942.75;6245850;22;46409;-66
2023/08/18 02:17:03;;;;;;;;;24.50;23.75;;;;;23.83;73.03;100937.94;6246741;22;45812;-66
2023/08/18 02:19:28;;;;;;;;;25.50;24.50;;;;;23.80;73.02;100929.97;6246639;22;45538;-66
2023/08/18 02:21:54;;;;;;;;;26.75;23.25;;;;;23.76;72.77;100923.06;6244610;22;45650;-67
2023/08/18 02:24:19;;;;;;;;;22.75;22.00;;;;;23.74;72.89;100930.50;6246200;22;45250;-66
2023/08/18 02:26:44;;;;;;;;;23.75;22.50;;;;;23.76;72.99;100933.97;6246394;22;45192;-66
2023/08/18 02:29:10;;;;;;;;;18.25;16.50;;;;;23.77;73.31;100941.13;6246263;22;45229;-66
2023/08/18 02:31:36;;;;;;;;;26.50;25.00;;;;;23.77;73.19;100947.47;6244175;22;45243;-66
2023/08/18 02:34:02;;;;;;;;;20.50;19.75;;;;;23.72;73.35;100941.53;6246264;22;46366;-66
2023/08/18 02:36:27;;;;;;;;;26.50;24.25;;;;;23.80;73.54;100949.06;6246224;22;45246;-66
2023/08/18 02:38:52;;;;;;;;;25.25;24.00;;;;;23.81;74.06;100951.66;6244760;22;45277;-66
2023/08/18 02:41:18;;;;;;;;;28.50;25.75;;;;;23.62;73.69;100919.66;6246533;22;45187;-66
2023/08/18 02:43:46;;;;;;;;;24.75;22.25;;;;;23.68;73.64;100932.75;6245940;22;46169;-66
2023/08/18 02:46:11;;;;;;;;;24.00;21.75;;;;;23.62;73.71;100918.78;6246066;22;45705;-66
2023/08/18 02:48:36;;;;;;;;;23.00;21.25;;;;;23.76;74.25;100940.28;6246498;22;45398;-67
2023/08/18 02:51:03;;;;;;;;;27.75;25.00;;;;;23.65;73.81;100911.19;6246558;22;45250;-66
2023/08/18 02:53:29;;;;;;;;;27.00;27.00;;;;;23.81;73.73;100931.72;6245318;22;45406;-66
2023/08/18 02:55:55;;;;;;;;;23.00;22.25;;;;;23.81;74.20;100937.16;6245868;22;45409;-67
2023/08/18 02:58:21;;;;;;;;;26.00;22.50;;;;;23.76;73.91;100917.63;6246107;22;45294;-66
2023/08/18 03:00:47;;;;;;;;;21.25;21.25;;;;;23.80;73.96;100938.16;6246385;22;45193;-66
2023/08/18 03:03:12;;;;;;;;;25.25;24.25;;;;;23.72;74.29;100916.13;6218712;22;46888;-66
2023/08/18 03:05:37;;;;;;;;;27.00;23.50;;;;;23.47;74.58;100891.84;6246004;22;45280;-66
2023/08/18 03:08:03;;;;;;;;;24.00;23.25;;;;;23.73;74.33;100931.50;6245945;22;45202;-67
2023/08/18 03:10:29;;;;;;;;;26.50;23.25;;;;;23.55;74.59;100899.34;6245393;22;45272;-66
2023/08/18 03:12:54;;;;;;;;;30.00;28.50;;;;;23.48;74.42;100888.13;6244554;22;45237;-67
2023/08/18 03:15:20;;;;;;;;;28.00;25.50;;;;;23.47;74.41;100891.84;6245595;22;45327;-66
2023/08/18 03:17:45;;;;;;;;;31.25;26.50;;;;;23.66;74.76;100912.94;6219953;22;45407;-67
2023/08/18 03:20:11;;;;;;;;;25.75;24.50;;;;;23.48;74.83;100888.13;6247416;22;45374;-66
2023/08/18 03:22:36;;;;;;;;;23.75;23.75;;;;;23.62;75.06;100913.31;6247560;22;46609;-66
2023/08/18 03:25:02;;;;;;;;;25.00;23.00;;;;;23.56;74.59;100906.53;6246190;22;45332;-66
2023/08/18 03:27:28;;;;;;;;;26.00;24.25;;;;;23.67;74.85;100914.69;6247453;22;45357;-66
2023/08/18 03:29:55;;;;;;;;;21.25;20.75;;;;;23.68;75.03;100913.66;6219480;22;45427;-66
2023/08/18 03:32:22;;;;;;;;;22.75;21.00;;;;;23.50;75.07;100882.53;6218601;22;48234;-66
2023/08/18 03:34:47;;;;;;;;;24.50;23.50;;;;;23.65;75.07;100908.47;6246153;22;45249;-67
2023/08/18 03:37:13;;;;;;;;;24.75;24.75;;;;;23.53;75.96;100886.88;6247527;22;45335;-66
2023/08/18 03:39:38;;;;;;;;;30.00;27.50;;;;;23.62;75.34;100902.44;6247369;22;45262;-66
2023/08/18 03:42:03;;;;;;;;;23.50;22.00;;;;;23.54;75.13;100894.94;6247090;22;45256;-67
2023/08/18 03:44:29;;;;;;;;;27.50;25.75;;;;;23.59;75.04;100891.78;6219356;22;45395;-67
2023/08/18 03:46:56;;;;;;;;;30.50;25.75;;;;;23.64;75.40;100895.88;6246099;22;45717;-66
2023/08/18 03:49:21;;;;;;;;;27.50;26.25;;;;;23.52;75.47;100868.78;6246954;22;45303;-66
2023/08/18 03:51:47;;;;;;;;;27.25;22.75;;;;;23.48;75.69;100870.91;6247138;22;45272;-66
2023/08/18 03:54:12;;;;;;;;;26.00;25.50;;;;;23.44;75.65;100864.88;6246715;22;45396;-66
2023/08/18 03:56:37;;;;;;;;;28.50;27.00;;;;;23.66;75.77;100895.72;6246654;22;45307;-66
2023/08/18 03:59:03;;;;;;;;;26.25;25.75;;;;;23.67;75.47;100903.78;6247110;22;45316;-66
2023/08/18 04:01:28;;;;;;;;;30.25;28.00;;;;;23.55;75.39;100884.88;6246967;22;45773;-67
2023/08/18 04:03:58;;;;;;;;;26.50;24.75;;;;;23.49;75.70;100878.97;6247414;22;45269;-66
2023/08/18 04:06:24;;;;;;;;;28.75;27.50;;;;;23.53;75.86;100900.50;6246952;22;45401;-66
2023/08/18 04:09:15;;;;;;;;;27.00;24.00;;;;;23.37;76.35;100876.41;6219659;22;45408;-67
2023/08/18 04:11:41;;;;;;;;;30.75;26.00;;;;;23.41;76.18;100895.09;6245967;22;45317;-66
2023/08/18 04:14:07;;;;;;;;;30.75;29.25;;;;;23.32;76.39;100882.22;6246856;22;45424;-66
2023/08/18 04:16:32;;;;;;;;;26.75;24.25;;;;;23.40;76.61;100897.94;6219635;22;45445;-66
2023/08/18 04:18:58;;;;;;;;;28.75;28.25;;;;;23.30;76.96;100879.66;6219109;22;45344;-66
2023/08/18 04:21:25;;;;;;;;;27.00;26.25;;;;;23.22;76.69;100871.25;6246614;22;46220;-66
2023/08/18 04:23:50;;;;;;;;;26.75;24.50;;;;;23.34;76.89;100887.53;6247142;22;45544;-66
2023/08/18 04:26:15;;;;;;;;;27.75;25.50;;;;;23.42;76.61;100896.81;6247114;22;45396;-67
2023/08/18 04:28:41;;;;;;;;;30.75;28.25;;;;;23.35;76.91;100884.69;6246476;22;45291;-66
2023/08/18 04:31:07;;;;;;;;;27.50;26.50;;;;;23.36;76.87;100891.03;6243926;22;48036;-66
2023/08/18 04:33:32;;;;;;;;;25.75;21.50;;;;;23.26;77.31;100870.00;6247310;22;45292;-66
2023/08/18 04:35:58;;;;;;;;;19.00;17.75;;;;;23.22;77.07;100854.94;6246925;22;45339;-66
2023/08/18 04:38:23;;;;;;;;;28.00;25.50;;;;;23.23;76.87;100859.38;6247261;22;45275;-66
2023/08/18 04:40:59;;;;;;;;;24.75;24.25;;;;;23.30;77.08;100862.44;6246950;22;45233;-66
2023/08/18 04:43:24;;;;;;;;;24.50;23.25;;;;;23.37;77.19;100877.28;6246679;22;45390;-66
2023/08/18 04:45:51;;;;;;;;;17.50;15.75;;;;;23.40;77.32;100887.03;6227928;22;45292;-66
2023/08/18 04:48:16;;;;;;;;;29.75;28.00;;;;;23.28;77.26;100870.72;6245134;22;45313;-66
2023/08/18 04:50:41;;;;;;;;;33.75;27.75;;;;;23.21;77.50;100857.78;6246821;22;51318;-66
2023/08/18 04:53:07;;;;;;;;;29.25;27.75;;;;;23.25;77.45;100872.84;6270360;22;51337;-66
2023/08/18 04:55:35;;;;;;;;;29.00;25.25;;;;;23.13;77.49;100850.25;6244365;22;45259;-66
2023/08/18 04:58:01;;;;;;;;;26.00;25.25;;;;;23.11;77.98;100854.97;6246761;22;45413;-66
2023/08/18 05:00:27;;;;;;;;;29.75;26.00;;;;;23.29;77.81;100883.38;6246779;22;45492;-66
2023/08/18 05:02:53;;;;;;;;;26.75;26.00;;;;;23.18;78.12;100864.34;6247020;22;45281;-66
2023/08/18 05:05:18;;;;;;;;;27.75;27.50;;;;;23.23;78.21;100878.41;6246732;22;45641;-66
2023/08/18 05:07:44;;;;;;;;;27.50;24.50;;;;;23.11;78.63;100857.69;6246545;22;45281;-66
2023/08/18 05:10:09;;;;;;;;;27.25;24.75;;;;;23.10;78.20;100858.66;6246723;22;46269;-66
2023/08/18 05:12:34;;;;;;;;;25.50;24.00;;;;;23.17;78.80;100876.25;6246722;22;45242;-66
2023/08/18 05:15:00;;;;;;;;;29.75;24.50;;;;;23.03;78.66;100850.09;6246872;22;45329;-66
2023/08/18 05:17:25;;;;;;;;;33.50;30.00;;;;;23.23;78.81;100881.16;6247072;22;45673;-66
2023/08/18 05:19:51;;;;;;;;;23.25;22.75;;;;;23.10;79.04;100851.38;6246902;22;45347;-66
2023/08/18 05:22:16;;;;;;;;;24.75;23.50;;;;;23.11;79.16;100850.38;6246860;22;45232;-66
2023/08/18 05:24:41;;;;;;;;;23.50;21.25;;;;;23.06;79.06;100844.44;6244793;22;45259;-66
2023/08/18 05:27:07;;;;;;;;;24.75;23.50;;;;;23.06;78.95;100836.28;6247012;22;45507;-66
2023/08/18 05:29:32;;;;;;;;;22.50;21.25;;;;;23.08;79.20;100839.72;6246416;22;46194;-67
2023/08/18 05:31:57;;;;;;;;;23.75;22.00;;;;;23.15;79.35;100839.22;6247123;22;45227;-66
2023/08/18 05:34:24;;;;;;;;;25.25;22.00;;;;;23.13;79.48;100833.91;6246563;22;45430;-66
2023/08/18 05:36:50;;;;;;;;;28.75;26.50;;;;;23.18;79.16;100849.88;6246993;22;45420;-67
2023/08/18 05:39:15;;;;;;;;;26.00;22.50;;;;;23.11;79.57;100831.31;6246744;22;45826;-66
2023/08/18 05:41:40;;;;;;;;;25.00;25.00;;;;;23.07;79.48;100829.84;6246870;22;45376;-66
2023/08/18 05:44:06;;;;;;;;;25.00;25.00;;;;;23.20;79.71;100846.00;6246603;22;45567;-67
2023/08/18 05:46:32;;;;;;;;;24.00;23.25;;;;;23.27;79.89;100868.13;6246223;22;45319;-66
2023/08/18 05:48:57;;;;;;;;;28.75;27.50;;;;;23.26;79.79;100861.84;6246627;22;45311;-66
2023/08/18 05:51:22;;;;;;;;;27.75;26.00;;;;;23.02;79.89;100820.28;6246780;22;45351;-66
2023/08/18 05:53:48;;;;;;;;;25.50;22.25;;;;;23.13;80.01;100842.06;6246554;22;45291;-67
2023/08/18 05:56:13;;;;;;;;;24.50;24.50;;;;;23.15;80.35;100850.97;6246495;22;45694;-66
2023/08/18 05:58:39;;;;;;;;;25.25;22.75;;;;;23.26;80.32;100872.72;6246557;22;45474;-66
2023/08/18 06:01:04;;;;;;;;;24.75;24.25;;;;;23.11;80.20;100841.34;6218835;22;45264;-69
2023/08/18 06:03:30;;;;;;;;;31.75;25.75;;;;;23.13;80.54;100837.47;6216783;22;45341;-69
2023/08/18 06:06:00;;;;;;;;;22.50;20.50;;;;;23.19;80.53;100838.84;6245222;22;45457;-69
2023/08/18 06:08:26;;;;;;;;;26.50;25.75;;;;;23.20;80.53;100826.09;6246501;22;45561;-68
2023/08/18 06:10:51;;;;;;;;;24.00;23.25;;;;;23.21;80.62;100828.69;6244966;22;45378;-69
2023/08/18 06:13:17;;;;;;;;;21.00;21.00;;;;;23.23;80.52;100818.50;6245690;22;45334;-69
2023/08/18 06:15:43;;;;;;;;;23.75;21.75;;;;;23.39;80.75;100839.88;6243840;22;45538;-69
2023/08/18 06:18:09;;;;;;;;;25.50;25.50;;;;;23.36;80.95;100828.38;6218773;22;48193;-70
2023/08/18 06:20:35;;;;;;;;;22.25;22.25;;;;;23.34;80.93;100822.19;6246385;22;45331;-70
2023/08/18 06:23:01;;;;;;;;;23.00;23.00;;;;;23.39;80.78;100825.38;6218842;22;45340;-70
2023/08/18 06:25:26;;;;;;;;;21.25;20.75;;;;;23.58;80.54;100850.06;6217647;22;45709;-70
2023/08/18 06:27:52;;;;;;;;;28.00;26.25;;;;;23.41;80.54;100821.53;6218527;22;48153;-70
2023/08/18 06:30:17;;;;;;;;;25.00;24.00;;;;;23.43;80.73;100824.13;6246467;22;45256;-69
2023/08/18 06:32:45;;;;;;;;;23.50;21.50;;;;;23.55;80.64;100838.56;6246159;22;45256;-69
2023/08/18 06:35:10;;;;;;;;;20.50;20.50;;;;;23.37;80.26;100822.81;6245310;22;45319;-69
2023/08/18 06:37:36;;;;;;;;;29.25;24.75;;;;;23.30;81.46;100806.13;6218543;22;46352;-69
2023/08/18 06:40:02;;;;;;;;;25.75;24.25;;;;;23.24;81.13;100800.34;6245770;22;45310;-69
2023/08/18 06:42:27;;;;;;;;;21.75;20.75;;;;;23.39;81.42;100828.09;6246144;22;45455;-70
2023/08/18 06:44:53;;;;;;;;;24.00;22.75;;;;;23.43;81.65;100829.59;6244665;22;45343;-72
2023/08/18 06:47:20;;;;;;;;;25.75;23.75;;;;;23.44;81.77;100826.72;6218682;22;46207;-71
2023/08/18 06:49:46;;;;;;;;;24.75;23.50;;;;;23.34;81.12;100805.84;6245661;22;45516;-71
2023/08/18 06:52:11;;;;;;;;;28.00;25.25;;;;;23.51;81.59;100837.97;6218548;22;45392;-71
2023/08/18 06:54:37;;;;;;;;;23.00;21.75;;;;;23.62;80.94;100853.38;6216421;22;45214;-70
2023/08/18 06:57:02;;;;;;;;;22.50;22.50;;;;;23.58;81.65;100841.03;6245357;22;45322;-71
2023/08/18 06:59:28;;;;;;;;;25.25;23.25;;;;;23.52;81.66;100823.31;6244295;22;45267;-69
2023/08/18 07:01:54;;;;;;;;;29.50;26.50;;;;;23.61;81.69;100838.91;6217354;22;45446;-69
2023/08/18 07:04:19;;;;;;;;;18.50;18.00;;;;;23.61;81.87;100832.59;6245057;22;45471;-70
2023/08/18 07:06:45;;;;;;;;;26.25;24.00;;;;;23.56;82.17;100832.13;6241842;22;45447;-69
2023/08/18 07:09:13;;;;;;;;;29.75;25.75;;;;;23.79;82.12;100863.72;6215389;22;45726;-70
2023/08/18 07:11:39;;;;;;;;;24.25;22.75;;;;;23.82;81.51;100868.03;6242496;22;45492;-69
2023/08/18 07:14:04;;;;;;;;;24.50;23.50;;;;;23.64;81.81;100840.50;6242065;22;45315;-69
2023/08/18 07:16:30;;;;;;;;;24.50;22.75;;;;;23.71;82.25;100844.44;6243041;22;45334;-70
2023/08/18 07:18:55;;;;;;;;;22.75;22.00;;;;;23.69;81.96;100832.81;6237716;22;45511;-68
2023/08/18 07:21:21;;;;;;;;;23.25;22.25;;;;;23.80;82.51;100845.47;6242575;22;45582;-68
2023/08/18 07:23:46;;;;;;;;;25.00;24.00;;;;;23.97;82.16;100858.56;6242465;22;45193;-75
2023/08/18 07:26:11;;;;;;;;;25.25;23.75;;;;;24.00;81.87;100862.88;6241197;22;61872;-66
2023/08/18 07:28:37;;;;;;;;;23.25;22.00;;;;;23.94;81.94;100856.09;6243171;22;45306;-68
2023/08/18 07:31:03;;;;;;;;;26.25;24.75;;;;;24.04;81.76;100870.66;6243170;22;45315;-66
2023/08/18 07:33:30;;;;;;;;;28.25;26.00;;;;;24.08;81.85;100867.66;6216446;22;45374;-66
2023/08/18 07:35:56;;;;;;;;;25.00;23.50;;;;;24.00;81.63;100861.00;6243698;22;45350;-66
2023/08/18 07:38:21;;;;;;;;;24.50;22.50;;;;;24.09;82.01;100869.38;6244233;22;45422;-66
2023/08/18 07:40:46;;;;;;;;;20.75;19.75;;;;;24.06;82.16;100862.34;6243830;22;45338;-66
2023/08/18 07:43:12;;;;;;;;;26.50;25.75;;;;;24.08;81.55;100860.34;6243313;22;45316;-67
2023/08/18 07:45:37;;;;;;;;;28.00;25.00;;;;;24.07;82.14;100861.31;6241750;22;47405;-66
2023/08/18 07:48:03;;;;;;;;;23.00;19.00;;;;;24.18;82.25;100872.16;6243658;22;45306;-66
2023/08/18 07:50:28;;;;;;;;;22.00;21.50;;;;;24.18;81.35;100872.16;6240310;22;45313;-67
2023/08/18 07:52:54;;;;;;;;;24.25;23.25;;;;;24.23;81.14;100867.16;6243650;22;45303;-66
2023/08/18 07:55:21;;;;;;;;;24.25;21.50;;;;;24.29;81.37;100873.94;6241023;22;60245;-67
2023/08/18 07:57:47;;;;;;;;;24.00;22.25;;;;;24.34;81.70;100876.25;6242311;22;45330;-63
2023/08/18 08:00:17;;;;;;;;;24.00;24.00;;;;;24.38;82.22;100875.00;6241857;22;45388;-63
2023/08/18 08:02:43;;;;;;;;;28.75;22.50;;;;;24.40;82.01;100875.72;6241898;22;45620;-63
2023/08/18 08:05:10;;;;;;;;;24.50;22.50;;;;;24.41;82.22;100882.91;6240245;22;45414;-63
2023/08/18 08:07:35;;;;;;;;;25.50;23.75;;;;;24.48;82.26;100892.28;6242530;22;45280;-63
2023/08/18 08:10:03;;;;;;;;;26.25;26.25;;;;;24.49;82.18;100884.94;6244578;22;45468;-62
2023/08/18 08:12:34;;;;;;;;;23.25;23.25;;;;;24.51;81.38;100882.97;6216320;22;45409;-63
2023/08/18 08:15:00;;;;;;;;;22.50;22.25;;;;;24.56;81.70;100887.03;6216677;22;48282;-63
2023/08/18 08:17:29;;;;;;;;;21.00;20.00;;;;;24.59;80.99;100883.13;6246029;22;45519;-63
2023/08/18 08:19:56;;;;;;;;;23.75;22.50;;;;;24.64;81.48;100878.16;6245355;22;45347;-63
2023/08/18 08:22:22;;;;;;;;;25.00;24.75;;;;;24.66;80.88;100873.44;6242770;22;45578;-62
2023/08/18 08:24:48;;;;;;;;;22.25;22.25;;;;;24.70;81.50;100884.94;6243686;22;46098;-61
2023/08/18 08:27:15;;;;;;;;;19.75;19.75;;;;;24.73;81.12;100890.97;6243956;22;45682;-61
2023/08/18 08:29:41;;;;;;;;;26.00;23.00;;;;;24.74;81.30;100892.72;6246153;22;45344;-62
2023/08/18 08:32:06;;;;;;;;;22.75;20.75;;;;;24.77;81.59;100886.97;6245322;22;45532;-62
2023/08/18 08:34:31;;;;;;;;;20.00;18.75;;;;;24.82;82.06;100889.25;6245421;22;59143;-61
2023/08/18 08:36:57;;;;;;;;;25.75;25.00;;;;;24.85;81.24;100880.81;6244316;22;52406;-62
2023/08/18 08:39:22;;;;;;;;;23.00;22.00;;;;;24.86;80.84;100879.81;6215666;22;45368;-61
2023/08/18 08:41:48;;;;;;;;;19.25;18.50;;;;;24.89;81.29;100875.91;6243494;22;45348;-61
2023/08/18 08:44:13;;;;;;;;;24.25;22.00;;;;;24.91;81.17;100868.47;6243030;22;45201;-61
2023/08/18 08:46:40;;;;;;;;;18.50;18.50;;;;;24.95;80.59;100868.03;6244559;22;45253;-61
2023/08/18 08:49:07;;;;;;;;;26.75;24.00;;;;;24.98;81.43;100866.91;6238498;22;45399;-60
2023/08/18 08:51:36;;;;;;;;;21.25;20.00;;;;;24.98;80.80;100860.59;6241133;22;45294;-61
2023/08/18 08:54:03;;;;;;;;;18.50;18.50;;;;;25.03;81.43;100866.50;6244330;22;45253;-61
2023/08/18 08:56:34;;;;;;;;;23.50;21.50;;;;;25.05;80.80;100859.00;6243970;22;45869;-61
2023/08/18 08:59:00;;;;;;;;;26.75;23.25;;;;;25.06;80.33;100852.53;6216441;22;45343;-61
2023/08/18 09:01:26;;;;;;;;;24.50;24.00;;;;;25.08;81.24;100856.84;6245009;22;45281;-61
2023/08/18 09:03:52;;;;;;;;;23.00;19.50;;;;;25.12;80.62;100855.56;6243657;22;46196;-61
2023/08/18 09:06:17;;;;;;;;;24.75;22.00;;;;;25.14;80.39;100841.75;6244626;22;45269;-61
2023/08/18 09:08:43;;;;;;;;;24.00;23.75;;;;;25.19;80.13;100833.16;6215366;22;45288;-61
2023/08/18 09:11:09;;;;;;;;;23.00;21.50;;;;;25.20;80.68;100843.06;6243992;22;45602;-61
2023/08/18 09:13:35;;;;;;;;;24.50;21.75;;;;;25.22;81.34;100833.72;6243803;22;46808;-61
2023/08/18 09:16:04;;;;;;;;;21.00;21.00;;;;;25.25;80.60;100838.06;6244293;22;45372;-62
2023/08/18 09:18:32;;;;;;;;;20.75;20.75;;;;;25.28;81.16;100837.81;6216102;22;45305;-61
2023/08/18 09:20:57;;;;;;;;;21.00;18.00;;;;;25.36;81.83;100839.78;6244897;22;45285;-61
2023/08/18 09:23:26;;;;;;;;;19.25;19.25;;;;;25.40;80.83;100839.38;6216329;22;46835;-61
2023/08/18 09:25:52;;;;;;;;;17.50;17.50;;;;;25.47;81.57;100843.25;6243960;22;45814;-61
2023/08/18 09:28:17;;;;;;;;;23.00;22.75;;;;;25.47;81.56;100835.03;6243740;22;45391;-61
2023/08/18 09:30:43;;;;;;;;;22.25;20.50;;;;;25.56;81.24;100838.81;6244605;22;45410;-61
2023/08/18 09:33:09;;;;;;;;;19.00;18.25;;;;;25.63;81.64;100847.28;6216174;22;46882;-62
2023/08/18 09:35:34;;;;;;;;;18.75;18.50;;;;;25.69;81.95;100844.84;6217310;22;45333;-61
2023/08/18 09:38:01;;;;;;;;;21.25;21.25;;;;;25.77;81.95;100846.81;6244977;22;45265;-62
2023/08/18 09:40:27;;;;;;;;;20.25;18.75;;;;;25.89;82.03;100853.88;6244716;22;45276;-62
2023/08/18 09:42:52;;;;;;;;;18.25;17.25;;;;;25.93;81.13;100846.22;6241945;22;45970;-62
2023/08/18 09:45:24;;;;;;;;;19.25;16.75;;;;;26.00;80.86;100847.41;6244135;22;45356;-62
2023/08/18 09:47:56;;;;;;;;;18.75;18.50;;;;;26.10;80.12;100839.16;6245071;22;45233;-63
2023/08/18 09:50:29;;;;;;;;;22.75;20.00;;;;;26.15;81.14;100833.25;6243124;22;45816;-62
2023/08/18 09:52:56;;;;;;;;;17.75;17.50;;;;;26.21;81.10;100832.63;6242937;22;46165;-62
2023/08/18 09:55:32;;;;;;;;;18.50;17.00;;;;;26.29;80.22;100816.34;6214394;22;45356;-62
2023/08/18 09:58:25;;;;;;;;;21.25;20.25;;;;;26.36;80.17;100813.84;6216817;22;45408;-62
2023/08/18 10:00:56;;;;;;;;;16.75;16.00;;;;;26.40;80.23;100815.28;6243589;22;45377;-62
2023/08/18 10:03:25;;;;;;;;;17.50;17.50;;;;;26.46;79.50;100820.16;6216952;22;47113;-62
2023/08/18 10:05:52;;;;;;;;;18.25;17.75;;;;;26.49;78.88;100817.09;6242412;22;45556;-62
2023/08/18 10:08:18;;;;;;;;;16.00;14.25;;;;;26.51;79.20;100815.06;6245597;22;45289;-62
2023/08/18 10:10:45;;;;;;;;;19.75;16.00;;;;;26.53;79.20;100807.59;6241408;22;45341;-62
2023/08/18 10:13:12;;;;;;;;;19.25;17.25;;;;;26.61;79.01;100807.69;6214405;22;46105;-62
2023/08/18 10:15:38;;;;;;;;;19.00;18.00;;;;;26.64;78.92;100812.03;6215627;22;45305;-62
2023/08/18 10:18:09;;;;;;;;;21.50;19.25;;;;;26.70;78.99;100807.84;6216079;22;45407;-62
2023/08/18 10:20:35;;;;;;;;;20.75;18.25;;;;;26.76;78.73;100812.66;6243627;22;45323;-62
2023/08/18 10:23:04;;;;;;;;;20.75;15.75;;;;;26.79;78.62;100805.00;6243420;22;46178;-62
2023/08/18 10:25:31;;;;;;;;;16.25;15.75;;;;;26.83;78.27;100802.84;6243174;22;45360;-62
2023/08/18 10:27:57;;;;;;;;;17.25;17.25;;;;;26.87;77.93;100790.56;6216225;22;45320;-62
2023/08/18 10:30:29;;;;;;;;;13.00;12.25;;;;;26.90;78.04;100790.25;6244219;22;45335;-62
2023/08/18 10:33:04;;;;;;;;;15.25;14.00;;;;;26.94;77.36;100786.16;6243681;22;46034;-62
2023/08/18 10:35:30;;;;;;;;;16.25;15.50;;;;;26.98;77.24;100787.59;6242530;22;45342;-64
2023/08/18 10:38:05;;;;;;;;;17.50;16.75;;;;;27.07;77.51;100794.00;6243170;22;45415;-62
2023/08/18 10:40:35;;;;;;;;;17.50;14.50;;;;;27.10;76.59;100788.22;6244213;22;45324;-62
2023/08/18 10:43:12;;;;;;;;;17.75;17.25;;;;;27.13;75.99;100787.91;6215342;22;47228;-62
2023/08/18 10:45:40;;;;;;;;;15.50;15.50;;;;;27.18;76.54;100787.41;6242871;22;45417;-62
2023/08/18 10:48:06;;;;;;;;;13.00;12.25;;;;;27.23;76.45;100792.44;6243320;22;45340;-62
2023/08/18 10:50:35;;;;;;;;;15.75;15.75;;;;;27.23;76.17;100779.63;6243577;22;45346;-62
2023/08/18 10:53:03;;;;;;;;;15.75;14.00;;;;;27.26;75.14;100787.50;6243432;22;46122;-62
2023/08/18 10:55:30;;;;;;;;;14.00;14.00;;;;;27.26;76.90;100779.28;6241418;22;45284;-62
2023/08/18 10:57:55;;;;;;;;;14.50;14.50;;;;;27.34;75.77;100787.59;6242119;22;45391;-62
2023/08/18 11:00:20;;;;;;;;;13.00;12.00;;;;;27.38;75.81;100787.28;6244236;22;45506;-62
2023/08/18 11:02:49;;;;;;;;;13.50;11.75;;;;;27.41;75.61;100795.19;6215905;22;46819;-62
2023/08/18 11:05:21;;;;;;;;;17.00;15.25;;;;;27.41;75.71;100786.97;6243855;22;45265;-62